Time;durP1;ratioP1;P1;durP2;ratioP2;P2;SDS_P1;SDS_P2;PMS_P1;PMS_P2;Temp;Humidity;BMP_temperature;BMP_pressure;BME280_temperature;BME280_humidity;BME280_pressure;Samples;Min_cycle;Max_cycle;Signal;HPM_P1;HPM_P2
2021/07/24 04:01:06;;;;;;;12.23;11.07;;;14.10;99.90;;;;;;5613193;23;20490;-71
2021/07/24 04:03:33;;;;;;;14.73;12.30;;;14.10;99.90;;;;;;4916660;29;20469;-71
2021/07/24 04:06:00;;;;;;;12.77;11.50;;;14.10;99.90;;;;;;4916706;29;20483;-71
2021/07/24 04:08:27;;;;;;;14.53;10.70;;;14.20;99.90;;;;;;4917506;29;20471;-72
2021/07/24 04:10:54;;;;;;;13.53;11.40;;;14.30;99.90;;;;;;4917164;29;20531;-71
2021/07/24 04:13:21;;;;;;;13.23;11.17;;;14.30;99.90;;;;;;4917364;29;20895;-71
2021/07/24 04:15:48;;;;;;;12.60;10.57;;;14.30;99.90;;;;;;4916847;29;21049;-71
2021/07/24 04:18:16;;;;;;;13.10;11.63;;;14.40;99.90;;;;;;4917912;29;20459;-70
2021/07/24 04:20:43;;;;;;;13.00;10.70;;;14.40;99.90;;;;;;4917597;29;20498;-71
2021/07/24 04:23:10;;;;;;;12.70;10.80;;;14.40;99.90;;;;;;4916976;29;20470;-70
2021/07/24 04:25:36;;;;;;;11.60;10.20;;;14.40;99.90;;;;;;4917721;29;20474;-70
2021/07/24 04:28:03;;;;;;;16.50;11.37;;;14.50;99.90;;;;;;4916689;29;20947;-71
2021/07/24 04:30:32;;;;;;;12.63;11.33;;;14.60;99.90;;;;;;4916530;29;20487;-71
2021/07/24 04:32:58;;;;;;;15.93;11.40;;;14.60;99.90;;;;;;4917026;29;20494;-70
2021/07/24 04:35:26;;;;;;;12.37;11.07;;;14.70;99.90;;;;;;4916428;29;20537;-70
2021/07/24 04:37:53;;;;;;;11.53;10.40;;;15.00;99.90;;;;;;4916876;29;20553;-70
2021/07/24 04:40:20;;;;;;;10.07;9.07;;;15.50;99.90;;;;;;4915537;29;20542;-70
2021/07/24 04:42:47;;;;;;;10.77;9.67;;;16.00;99.90;;;;;;4916302;29;20949;-71
2021/07/24 04:45:14;;;;;;;9.43;8.43;;;16.60;99.90;;;;;;4916320;29;20458;-70
2021/07/24 04:47:41;;;;;;;8.83;8.20;;;17.20;99.90;;;;;;4901050;29;20541;-70
2021/07/24 04:50:09;;;;;;;8.70;8.10;;;17.70;99.90;;;;;;4916005;29;20481;-71
2021/07/24 04:52:37;;;;;;;8.80;8.00;;;18.10;99.90;;;;;;4916034;29;20509;-71
2021/07/24 04:55:05;;;;;;;9.37;8.67;;;18.50;99.90;;;;;;4916670;29;20573;-71
2021/07/24 04:57:34;;;;;;;8.43;7.73;;;18.90;99.90;;;;;;4916903;29;20493;-71
2021/07/24 05:00:01;;;;;;;8.63;8.03;;;19.30;99.90;;;;;;4915107;29;20475;-71
2021/07/24 05:02:29;;;;;;;9.03;8.33;;;19.80;99.90;;;;;;4915661;29;20915;-71
2021/07/24 05:04:57;;;;;;;8.60;7.90;;;20.10;99.90;;;;;;4915816;29;20526;-71
2021/07/24 05:07:23;;;;;;;8.07;7.47;;;20.40;99.90;;;;;;4916360;29;20545;-68
2021/07/24 05:09:51;;;;;;;8.80;8.10;;;20.70;99.90;;;;;;4916040;29;20466;-68
2021/07/24 05:12:18;;;;;;;9.17;8.50;;;21.20;99.90;;;;;;4915584;29;21060;-68
2021/07/24 05:14:45;;;;;;;8.83;8.23;;;21.50;99.90;;;;;;4916088;29;20505;-68
2021/07/24 05:17:13;;;;;;;10.00;9.10;;;21.90;99.90;;;;;;4915570;29;20577;-68
2021/07/24 05:19:41;;;;;;;9.20;8.50;;;22.30;99.90;;;;;;4915046;29;20530;-68
2021/07/24 05:22:09;;;;;;;9.37;8.67;;;22.40;99.90;;;;;;4916020;29;20560;-68
2021/07/24 05:24:37;;;;;;;8.90;8.40;;;22.60;99.90;;;;;;4915855;29;20459;-68
2021/07/24 05:27:05;;;;;;;10.10;9.50;;;22.60;99.90;;;;;;4915956;29;20478;-68
2021/07/24 05:29:33;;;;;;;9.93;9.27;;;22.80;99.90;;;;;;4915858;29;20475;-68
2021/07/24 05:31:59;;;;;;;9.57;8.87;;;23.00;99.90;;;;;;4914934;29;20584;-68
2021/07/24 05:34:26;;;;;;;10.27;9.37;;;22.90;99.90;;;;;;4915301;29;20679;-68
2021/07/24 05:36:53;;;;;;;9.60;8.80;;;22.80;99.90;;;;;;4914669;29;20838;-68
2021/07/24 05:39:20;;;;;;;10.00;9.30;;;22.70;99.90;;;;;;4915710;29;20546;-68
2021/07/24 05:41:46;;;;;;;10.50;9.70;;;22.30;99.90;;;;;;4915612;29;20490;-68
2021/07/24 05:44:17;;;;;;;10.03;9.30;;;21.70;99.90;;;;;;4915346;29;20478;-68
2021/07/24 05:46:44;;;;;;;10.27;9.23;;;21.20;99.90;;;;;;4915633;29;20473;-71
2021/07/24 05:49:11;;;;;;;11.20;10.27;;;21.00;99.90;;;;;;4915687;29;21014;-71
2021/07/24 05:51:39;;;;;;;8.97;8.37;;;20.60;99.90;;;;;;4915414;29;20974;-71
2021/07/24 05:54:06;;;;;;;11.40;10.37;;;20.30;99.90;;;;;;4918869;29;20489;-71
2021/07/24 05:56:32;;;;;;;14.90;10.00;;;20.20;99.90;;;;;;4919771;29;20498;-71
2021/07/24 05:58:59;;;;;;;11.93;9.40;;;20.20;99.90;;;;;;4919288;29;20513;-70
2021/07/24 06:01:27;;;;;;;9.97;9.27;;;20.40;99.90;;;;;;4918718;29;20513;-71
2021/07/24 06:03:55;;;;;;;9.00;8.30;;;20.90;99.90;;;;;;4919511;29;20950;-70
2021/07/24 06:06:21;;;;;;;9.23;8.53;;;21.60;99.90;;;;;;4918467;29;20536;-70
2021/07/24 06:08:48;;;;;;;9.50;8.80;;;22.20;99.90;;;;;;4919931;29;20462;-71
2021/07/24 06:11:14;;;;;;;9.27;8.50;;;22.60;99.90;;;;;;4919179;29;20912;-70
2021/07/24 06:13:41;;;;;;;8.83;8.17;;;23.10;99.90;;;;;;4900326;29;20476;-71
2021/07/24 06:16:09;;;;;;;9.23;8.63;;;23.50;99.90;;;;;;4900208;29;20835;-70
2021/07/24 06:18:38;;;;;;;9.10;8.50;;;23.70;99.90;;;;;;4918781;29;20550;-71
2021/07/24 06:21:05;;;;;;;10.10;9.13;;;24.00;99.90;;;;;;4918846;29;20493;-70
2021/07/24 06:23:31;;;;;;;8.63;7.93;;;24.10;99.90;;;;;;4918908;29;20463;-71
2021/07/24 06:26:02;;;;;;;8.80;8.10;;;24.40;99.90;;;;;;4912194;29;20464;-70
2021/07/24 06:28:29;;;;;;;8.30;7.60;;;25.10;99.90;;;;;;4919306;29;20763;-71
2021/07/24 06:30:55;;;;;;;9.50;8.90;;;25.50;99.90;;;;;;4918414;29;20528;-70
2021/07/24 06:33:22;;;;;;;7.80;7.20;;;25.60;99.90;;;;;;4918864;29;20483;-71
2021/07/24 06:35:50;;;;;;;8.53;7.90;;;25.90;99.90;;;;;;4917821;29;21027;-70
2021/07/24 06:38:16;;;;;;;9.13;8.60;;;26.10;99.90;;;;;;4918900;29;20513;-71
2021/07/24 06:40:43;;;;;;;8.60;7.90;;;26.30;99.90;;;;;;4918385;29;20496;-70
2021/07/24 06:43:10;;;;;;;9.00;8.30;;;26.00;99.90;;;;;;4919504;29;20572;-71
2021/07/24 06:45:37;;;;;;;7.80;7.17;;;26.20;99.90;;;;;;4918360;29;20464;-70
2021/07/24 06:48:04;;;;;;;8.50;7.90;;;26.50;99.90;;;;;;4918098;29;20505;-71
2021/07/24 06:50:31;;;;;;;7.50;7.10;;;26.70;99.90;;;;;;4918035;29;20539;-71
2021/07/24 06:53:00;;;;;;;8.90;8.23;;;26.70;99.90;;;;;;4918370;29;20495;-70
2021/07/24 06:55:27;;;;;;;7.60;7.20;;;26.80;99.90;;;;;;4918776;29;20556;-69
2021/07/24 06:57:53;;;;;;;9.03;8.33;;;27.20;99.90;;;;;;4918149;29;20473;-70
2021/07/24 07:00:20;;;;;;;8.37;7.87;;;27.70;99.90;;;;;;4917688;29;20981;-70
2021/07/24 07:02:47;;;;;;;8.17;7.37;;;28.00;99.90;;;;;;4917597;29;20474;-71
2021/07/24 07:05:13;;;;;;;8.20;7.50;;;27.80;99.90;;;;;;4916633;29;20472;-71
2021/07/24 07:07:40;;;;;;;7.10;6.70;;;27.50;99.90;;;;;;4916898;29;20469;-70
2021/07/24 07:10:09;;;;;;;8.57;7.97;;;27.60;99.90;;;;;;4918531;29;20477;-68
2021/07/24 07:12:36;;;;;;;7.70;7.20;;;27.80;99.90;;;;;;4917721;29;20497;-69
2021/07/24 07:15:03;;;;;;;7.37;6.80;;;27.90;99.90;;;;;;4914757;29;20470;-70
2021/07/24 07:17:29;;;;;;;8.23;7.53;;;28.00;99.90;;;;;;4917817;29;20557;-72
2021/07/24 07:19:56;;;;;;;7.20;6.67;;;28.00;99.90;;;;;;4918340;29;20473;-71
2021/07/24 07:22:23;;;;;;;7.43;6.93;;;28.00;99.90;;;;;;4917540;29;20532;-71
2021/07/24 07:24:49;;;;;;;6.43;6.03;;;28.50;99.90;;;;;;4918369;29;20592;-70
2021/07/24 07:27:17;;;;;;;7.20;6.80;;;28.80;99.90;;;;;;4917981;29;20478;-71
2021/07/24 07:29:44;;;;;;;6.03;5.83;;;28.70;99.90;;;;;;4918334;29;20875;-71
2021/07/24 07:32:10;;;;;;;6.60;6.00;;;28.90;99.90;;;;;;4917162;29;20489;-71
2021/07/24 07:34:37;;;;;;;8.00;7.50;;;28.60;99.90;;;;;;4918650;29;20473;-71
2021/07/24 07:37:04;;;;;;;7.53;7.03;;;28.60;99.90;;;;;;4917409;29;20463;-71
2021/07/24 07:39:33;;;;;;;7.03;6.57;;;28.80;99.90;;;;;;4918802;29;20505;-72
2021/07/24 07:42:03;;;;;;;6.27;5.87;;;29.10;99.90;;;;;;4922427;29;20514;-72
2021/07/24 07:44:31;;;;;;;6.87;6.40;;;29.30;99.90;;;;;;4920948;29;20469;-71
2021/07/24 07:46:58;;;;;;;7.70;7.10;;;28.60;99.90;;;;;;4916602;29;20480;-70
2021/07/24 07:49:24;;;;;;;6.83;6.43;;;28.10;99.90;;;;;;4917467;29;20493;-70
2021/07/24 07:51:51;;;;;;;7.20;6.80;;;27.90;99.90;;;;;;4917543;29;20844;-68
2021/07/24 07:54:18;;;;;;;6.63;6.17;;;28.20;99.90;;;;;;4917312;29;20772;-70
2021/07/24 07:56:44;;;;;;;6.60;6.17;;;28.30;99.90;;;;;;4917040;29;20493;-69
2021/07/24 07:59:11;;;;;;;6.93;6.33;;;28.30;99.90;;;;;;4917472;29;20800;-68
2021/07/24 08:01:39;;;;;;;6.20;5.90;;;28.30;99.90;;;;;;4916791;29;20497;-68
2021/07/24 08:04:05;;;;;;;7.00;6.50;;;27.80;99.90;;;;;;4917137;29;20469;-69
2021/07/24 08:06:32;;;;;;;6.77;6.47;;;27.40;99.90;;;;;;4916762;29;20873;-67
2021/07/24 08:08:59;;;;;;;6.20;5.40;;;27.30;99.90;;;;;;4917384;29;20517;-67
2021/07/24 08:11:27;;;;;;;7.30;6.77;;;27.10;99.90;;;;;;4916885;29;21080;-67
2021/07/24 08:13:54;;;;;;;6.60;6.20;;;27.40;99.90;;;;;;4916529;29;20493;-67
2021/07/24 08:16:21;;;;;;;6.10;5.70;;;27.50;99.90;;;;;;4906011;29;20581;-66
2021/07/24 08:18:49;;;;;;;5.90;5.50;;;27.20;99.90;;;;;;4913579;29;20481;-69
2021/07/24 08:21:16;;;;;;;6.17;5.67;;;26.90;99.90;;;;;;4914894;29;20535;-69
2021/07/24 08:23:42;;;;;;;5.40;5.10;;;26.80;99.90;;;;;;4915531;29;20456;-66
2021/07/24 08:26:09;;;;;;;6.37;5.87;;;26.40;99.90;;;;;;4916751;29;20465;-66
2021/07/24 08:28:36;;;;;;;6.00;5.70;;;26.20;99.90;;;;;;4917508;29;20468;-68
2021/07/24 08:31:04;;;;;;;5.40;5.07;;;25.70;99.90;;;;;;4916734;29;20486;-68
2021/07/24 08:33:31;;;;;;;5.87;5.30;;;25.40;99.90;;;;;;4916967;29;20487;-69
2021/07/24 08:36:00;;;;;;;5.43;4.97;;;25.20;99.90;;;;;;4916274;29;20471;-70
2021/07/24 08:38:27;;;;;;;5.83;5.50;;;25.00;99.90;;;;;;4917238;29;20965;-70
2021/07/24 08:40:54;;;;;;;4.97;4.67;;;24.90;99.90;;;;;;4916648;29;20482;-70
2021/07/24 08:43:21;;;;;;;5.70;5.20;;;24.70;99.90;;;;;;4916277;29;20502;-71
2021/07/24 08:45:48;;;;;;;5.97;5.67;;;24.60;99.90;;;;;;4916165;29;20502;-70
2021/07/24 08:48:14;;;;;;;5.40;5.00;;;24.50;99.90;;;;;;4917705;29;20545;-72
2021/07/24 08:50:50;;;;;;;7.07;5.93;;;24.40;99.90;;;;;;4918081;29;20566;-71
2021/07/24 08:53:24;;;;;;;6.00;5.40;;;24.10;99.90;;;;;;4912979;29;20474;-70
2021/07/24 08:55:59;;;;;;;6.73;5.67;;;23.70;99.90;;;;;;4906031;29;20836;-68
2021/07/24 08:58:27;;;;;;;6.80;6.20;;;23.80;99.90;;;;;;4916412;29;20462;-69
2021/07/24 09:00:54;;;;;;;6.93;6.50;;;23.70;99.90;;;;;;4915832;29;20486;-68
2021/07/24 09:03:23;;;;;;;5.80;5.30;;;23.70;99.90;;;;;;4917024;29;20946;-69
2021/07/24 09:05:50;;;;;;;6.73;6.13;;;23.80;99.90;;;;;;4917486;29;20471;-68
2021/07/24 09:08:19;;;;;;;5.93;5.43;;;23.90;99.90;;;;;;4916603;29;20550;-68
2021/07/24 09:10:50;;;;;;;6.50;6.10;;;23.70;99.90;;;;;;4915693;29;20584;-68
2021/07/24 09:13:18;;;;;;;6.10;5.47;;;23.60;99.90;;;;;;4916491;29;20526;-68
2021/07/24 09:15:45;;;;;;;5.40;5.10;;;23.70;99.90;;;;;;4915790;29;20940;-68
2021/07/24 09:18:11;;;;;;;5.67;5.23;;;23.70;99.90;;;;;;4916068;29;20495;-67
2021/07/24 09:20:41;;;;;;;6.30;5.80;;;23.90;99.90;;;;;;4915432;29;20519;-68
2021/07/24 09:23:35;;;;;;;5.93;5.60;;;23.90;99.90;;;;;;4914900;29;20463;-68
2021/07/24 09:26:04;;;;;;;5.93;5.63;;;23.90;99.90;;;;;;4901696;29;20537;-68
2021/07/24 09:28:31;;;;;;;5.60;5.20;;;23.90;99.90;;;;;;4916637;29;20553;-68
2021/07/24 09:30:58;;;;;;;5.97;5.67;;;24.10;99.90;;;;;;4915398;29;21034;-68
2021/07/24 09:33:25;;;;;;;6.73;5.87;;;24.20;99.90;;;;;;4915419;29;20498;-68
2021/07/24 09:35:53;;;;;;;5.90;5.50;;;24.30;99.90;;;;;;4915229;29;20470;-68
2021/07/24 09:38:27;;;;;;;6.93;6.43;;;24.20;99.90;;;;;;4916003;29;20981;-68
2021/07/24 09:40:57;;;;;;;5.93;5.47;;;24.20;99.90;;;;;;4915627;29;20481;-68
2021/07/24 09:43:32;;;;;;;5.73;5.30;;;24.30;99.90;;;;;;4915827;29;20513;-71
2021/07/24 09:46:13;;;;;;;5.17;4.90;;;24.20;99.90;;;;;;4915388;29;20465;-70
2021/07/24 09:48:42;;;;;;;5.43;5.03;;;24.40;99.90;;;;;;4916186;29;20471;-71
2021/07/24 09:51:09;;;;;;;5.90;5.50;;;24.50;99.90;;;;;;4915143;29;20490;-71
2021/07/24 09:53:37;;;;;;;5.17;4.80;;;24.60;99.90;;;;;;4915682;29;20557;-71
2021/07/24 09:56:07;;;;;;;5.97;5.50;;;24.70;99.90;;;;;;4915751;29;20462;-70
2021/07/24 09:58:34;;;;;;;6.33;5.97;;;24.70;99.90;;;;;;4916481;29;20466;-71
2021/07/24 10:01:05;;;;;;;6.47;5.97;;;24.70;99.90;;;;;;4915376;29;20577;-70
2021/07/24 10:03:35;;;;;;;5.70;5.50;;;24.70;99.90;;;;;;4916230;29;20545;-71
2021/07/24 10:06:09;;;;;;;6.17;5.87;;;24.70;99.90;;;;;;4915821;29;20811;-71
2021/07/24 10:08:38;;;;;;;6.10;5.80;;;24.70;99.90;;;;;;4915473;29;20462;-71
2021/07/24 10:11:07;;;;;;;5.60;5.20;;;24.70;99.90;;;;;;4915220;29;20226;-71
2021/07/24 10:13:33;;;;;;;6.33;5.67;;;24.90;99.90;;;;;;4912015;29;20495;-71
2021/07/24 10:16:00;;;;;;;6.20;5.80;;;24.90;99.90;;;;;;4909755;29;20463;-71
2021/07/24 10:18:28;;;;;;;5.93;5.60;;;24.90;99.90;;;;;;4919084;29;20462;-71
2021/07/24 10:20:54;;;;;;;6.47;5.97;;;25.00;99.90;;;;;;4916282;29;20559;-72
2021/07/24 10:23:23;;;;;;;7.87;7.37;;;25.00;99.90;;;;;;4916493;29;20966;-72
2021/07/24 10:25:55;;;;;;;7.30;6.70;;;25.20;99.90;;;;;;4914884;29;20653;-71
2021/07/24 10:28:29;;;;;;;7.20;6.70;;;25.40;99.90;;;;;;4915686;29;20466;-71
2021/07/24 10:30:58;;;;;;;7.20;6.70;;;25.30;99.90;;;;;;4914790;29;20979;-72
2021/07/24 10:33:25;;;;;;;7.47;6.80;;;25.30;99.90;;;;;;4915227;29;20845;-71
2021/07/24 10:36:11;;;;;;;6.70;6.30;;;25.40;99.90;;;;;;4913866;29;20463;-67
2021/07/24 10:38:38;;;;;;;6.70;6.10;;;25.30;99.90;;;;;;4915838;29;20477;-67
2021/07/24 10:41:37;;;;;;;6.60;6.20;;;25.30;99.90;;;;;;4918703;29;20557;-67
2021/07/24 10:44:06;;;;;;;6.97;6.57;;;25.30;99.90;;;;;;4918638;29;20557;-68
2021/07/24 10:47:13;;;;;;;6.97;6.57;;;25.40;99.90;;;;;;4918094;29;20826;-67
2021/07/24 10:49:56;;;;;;;7.13;6.63;;;25.50;99.90;;;;;;4918585;29;20474;-68
2021/07/24 10:52:23;;;;;;;7.83;7.33;;;25.60;99.90;;;;;;4914161;29;20495;-68
2021/07/24 10:55:15;;;;;;;7.70;7.10;;;25.70;99.90;;;;;;4905446;29;20492;-68
2021/07/24 10:58:05;;;;;;;8.80;7.43;;;25.80;99.90;;;;;;4902156;29;20765;-67
2021/07/24 11:00:51;;;;;;;7.20;6.80;;;26.00;99.90;;;;;;4898846;29;20487;-67
2021/07/24 11:03:38;;;;;;;6.70;6.33;;;26.00;99.90;;;;;;4911516;29;20510;-67
2021/07/24 11:06:25;;;;;;;7.40;7.00;;;25.90;99.90;;;;;;4917949;29;20518;-68
2021/07/24 11:09:12;;;;;;;7.97;7.30;;;26.00;99.90;;;;;;4918146;29;20545;-67
2021/07/24 11:11:43;;;;;;;7.73;7.17;;;26.10;99.90;;;;;;4918045;29;20486;-67
2021/07/24 11:14:57;;;;;;;8.23;7.70;;;26.20;99.90;;;;;;4917349;29;21010;-67
2021/07/24 11:17:26;;;;;;;7.90;7.43;;;26.10;99.90;;;;;;4917757;29;20458;-67
2021/07/24 11:20:35;;;;;;;7.60;7.10;;;26.10;99.90;;;;;;4917492;29;20549;-67
2021/07/24 11:23:07;;;;;;;7.50;7.00;;;26.10;99.90;;;;;;4917443;29;20562;-67
2021/07/24 11:25:36;;;;;;;7.47;6.70;;;26.10;99.90;;;;;;4911796;29;20793;-67
2021/07/24 11:28:03;;;;;;;8.00;7.40;;;26.20;99.90;;;;;;4918225;29;20465;-66
2021/07/24 11:30:29;;;;;;;7.33;6.90;;;26.30;99.90;;;;;;4917549;29;20490;-71
2021/07/24 11:32:58;;;;;;;7.43;6.97;;;26.50;99.90;;;;;;4917228;29;20970;-71
2021/07/24 11:35:31;;;;;;;8.53;7.93;;;26.60;99.90;;;;;;4917323;29;20875;-70
2021/07/24 11:37:58;;;;;;;7.87;7.27;;;26.50;99.90;;;;;;4917952;29;20470;-70
2021/07/24 11:40:27;;;;;;;8.30;7.60;;;26.60;99.90;;;;;;4917627;29;20485;-69
2021/07/24 11:43:01;;;;;;;7.03;6.53;;;26.60;99.90;;;;;;4917414;29;20541;-69
2021/07/24 11:45:29;;;;;;;8.20;7.50;;;26.60;99.90;;;;;;4917489;29;20476;-69
2021/07/24 11:48:15;;;;;;;9.60;8.63;;;26.60;99.90;;;;;;4917978;29;20473;-70
2021/07/24 11:50:43;;;;;;;9.00;8.37;;;26.80;99.90;;;;;;4917065;29;20490;-69
2021/07/24 11:53:11;;;;;;;10.13;9.23;;;27.00;99.90;;;;;;4917126;29;20474;-69
2021/07/24 11:55:42;;;;;;;9.73;8.93;;;27.10;99.90;;;;;;4917488;29;20470;-69
2021/07/24 11:58:10;;;;;;;8.30;7.70;;;27.20;99.90;;;;;;4917769;29;20477;-70
2021/07/24 12:00:38;;;;;;;8.70;8.00;;;27.30;99.90;;;;;;4916897;29;20953;-70
2021/07/24 12:03:14;;;;;;;8.20;7.80;;;27.30;99.90;;;;;;4917326;29;20518;-70
2021/07/24 12:05:41;;;;;;;8.30;7.70;;;27.30;99.90;;;;;;4916614;29;20621;-70
2021/07/24 12:08:09;;;;;;;8.23;7.63;;;27.30;99.90;;;;;;4917582;29;20466;-69
2021/07/24 12:10:37;;;;;;;11.30;8.57;;;27.30;99.90;;;;;;4917109;29;20518;-70
2021/07/24 12:13:04;;;;;;;8.70;8.10;;;27.20;99.90;;;;;;4917035;29;20470;-70
2021/07/24 12:15:59;;;;;;;8.90;8.30;;;27.30;99.90;;;;;;4898051;29;20474;-69
2021/07/24 12:18:28;;;;;;;9.87;9.07;;;27.40;99.90;;;;;;4898538;29;20463;-70
2021/07/24 12:21:10;;;;;;;9.00;8.40;;;27.40;99.90;;;;;;4897610;29;20491;-70
2021/07/24 12:23:42;;;;;;;8.50;7.90;;;27.60;99.90;;;;;;4911590;29;20522;-70
2021/07/24 12:26:12;;;;;;;8.70;8.20;;;27.60;99.90;;;;;;4916862;29;20469;-70
2021/07/24 12:28:39;;;;;;;9.17;8.57;;;27.70;99.90;;;;;;4916920;29;20470;-70
2021/07/24 12:31:33;;;;;;;9.23;8.53;;;27.70;99.90;;;;;;4916633;29;20578;-70
2021/07/24 12:34:02;;;;;;;9.40;8.63;;;27.80;99.90;;;;;;4916405;29;20489;-70
2021/07/24 12:36:30;;;;;;;13.73;9.13;;;27.90;99.90;;;;;;4916340;29;20503;-70
2021/07/24 12:38:58;;;;;;;8.70;8.00;;;27.90;99.90;;;;;;4916761;29;20484;-70
2021/07/24 12:41:29;;;;;;;10.30;9.47;;;28.00;99.90;;;;;;4916246;29;20503;-70
2021/07/24 12:44:04;;;;;;;9.77;8.97;;;28.10;99.90;;;;;;4916295;29;20972;-71
2021/07/24 12:46:31;;;;;;;10.10;9.20;;;28.10;99.90;;;;;;4915935;29;20830;-70
2021/07/24 12:48:58;;;;;;;10.00;9.20;;;28.20;99.90;;;;;;4916701;29;20468;-70
2021/07/24 12:51:30;;;;;;;8.73;8.13;;;28.30;99.90;;;;;;4916213;29;20851;-69
2021/07/24 12:54:12;;;;;;;10.13;9.33;;;28.40;99.90;;;;;;4915573;29;20986;-70
2021/07/24 12:56:42;;;;;;;9.13;8.33;;;28.60;99.90;;;;;;4914981;29;20475;-70
2021/07/24 12:59:08;;;;;;;9.70;8.97;;;28.60;99.90;;;;;;4916822;29;20810;-70
2021/07/24 13:01:35;;;;;;;10.10;9.20;;;28.60;99.70;;;;;;4915329;29;20649;-70
2021/07/24 13:04:02;;;;;;;8.87;8.30;;;28.60;99.90;;;;;;4915893;29;20507;-70
2021/07/24 13:06:30;;;;;;;8.77;8.13;;;28.60;99.10;;;;;;4915671;29;20930;-70
2021/07/24 13:08:58;;;;;;;9.20;8.60;;;28.80;99.30;;;;;;4916657;29;20870;-70
2021/07/24 13:11:25;;;;;;;8.20;7.50;;;28.90;99.30;;;;;;4916296;29;20583;-70
2021/07/24 13:13:51;;;;;;;9.77;8.90;;;28.90;98.80;;;;;;4916078;29;20494;-70
2021/07/24 13:16:19;;;;;;;9.93;9.10;;;28.90;98.40;;;;;;4915721;29;20570;-70
2021/07/24 13:18:46;;;;;;;9.40;8.60;;;29.00;98.90;;;;;;4917428;29;20509;-70
2021/07/24 13:21:13;;;;;;;8.20;7.60;;;29.00;98.00;;;;;;4915520;29;21035;-70
2021/07/24 13:23:42;;;;;;;8.67;7.93;;;29.00;98.00;;;;;;4916035;29;20534;-70
2021/07/24 13:28:52;;;;;;;10.23;9.43;;;29.00;97.20;;;;;;4916322;29;20506;-69
2021/07/24 13:31:19;;;;;;;10.77;9.97;;;28.90;97.20;;;;;;4915217;29;20551;-70
2021/07/24 13:33:46;;;;;;;9.70;9.00;;;28.90;97.70;;;;;;4915599;29;20467;-69
2021/07/24 13:36:13;;;;;;;9.53;8.50;;;28.80;97.70;;;;;;4915593;29;20555;-69
2021/07/24 13:38:41;;;;;;;9.80;7.90;;;28.90;97.90;;;;;;4916085;29;20535;-71
2021/07/24 13:41:08;;;;;;;10.30;9.30;;;29.00;98.40;;;;;;4914935;29;20494;-67
2021/07/24 13:43:34;;;;;;;9.80;9.10;;;29.00;97.50;;;;;;4896571;29;20478;-69
2021/07/24 13:46:01;;;;;;;10.13;9.00;;;29.10;97.70;;;;;;4896514;29;20477;-69
2021/07/24 13:48:27;;;;;;;9.33;8.70;;;29.20;97.40;;;;;;4896984;29;20533;-69
2021/07/24 13:50:54;;;;;;;11.87;9.57;;;29.10;97.50;;;;;;4902385;29;20488;-70
2021/07/24 13:53:21;;;;;;;10.30;9.43;;;29.10;97.30;;;;;;4915649;29;20938;-70
2021/07/24 13:55:50;;;;;;;9.13;8.43;;;29.00;98.00;;;;;;4915690;29;20524;-70
2021/07/24 13:58:16;;;;;;;9.90;9.10;;;29.20;97.80;;;;;;4916007;29;20963;-70
2021/07/24 14:00:43;;;;;;;9.60;7.70;;;29.30;96.90;;;;;;4914952;29;20580;-70
2021/07/24 14:03:10;;;;;;;9.37;8.77;;;29.30;96.60;;;;;;4916139;29;20872;-71
2021/07/24 14:05:37;;;;;;;10.27;9.57;;;29.40;96.50;;;;;;4915278;29;20491;-70
2021/07/24 14:08:04;;;;;;;9.77;8.97;;;29.40;96.30;;;;;;4916161;29;20627;-72
2021/07/24 14:10:30;;;;;;;10.40;9.60;;;29.60;95.90;;;;;;4915179;29;20509;-70
2021/07/24 14:12:58;;;;;;;10.53;9.63;;;29.70;96.20;;;;;;4915404;29;20531;-71
2021/07/24 14:15:25;;;;;;;11.13;10.13;;;29.70;95.50;;;;;;4900809;29;20557;-69
2021/07/24 14:17:52;;;;;;;10.57;9.67;;;29.50;95.80;;;;;;4900328;29;20471;-71
2021/07/24 14:20:19;;;;;;;11.17;10.20;;;29.50;95.50;;;;;;4899909;29;20902;-70
2021/07/24 14:22:46;;;;;;;10.87;10.03;;;29.60;95.50;;;;;;4918827;29;20831;-71
2021/07/24 14:25:13;;;;;;;10.70;9.90;;;29.70;95.30;;;;;;4918307;29;20457;-71
2021/07/24 14:27:40;;;;;;;11.40;10.40;;;29.70;95.80;;;;;;4918691;29;20474;-70
2021/07/24 14:30:09;;;;;;;11.63;10.67;;;29.60;95.20;;;;;;4918759;29;20969;-70
2021/07/24 14:32:36;;;;;;;10.93;10.07;;;29.50;95.30;;;;;;4918731;29;20898;-70
2021/07/24 14:35:03;;;;;;;11.73;10.13;;;29.50;95.50;;;;;;4918641;29;20612;-70
2021/07/24 14:37:29;;;;;;;10.60;9.70;;;29.70;96.00;;;;;;4918890;29;20479;-70
2021/07/24 14:39:56;;;;;;;10.60;9.80;;;29.70;95.10;;;;;;4919280;29;20544;-70
2021/07/24 14:42:24;;;;;;;11.43;10.53;;;29.70;95.90;;;;;;4917988;29;20544;-69
2021/07/24 14:44:51;;;;;;;10.53;9.73;;;29.80;95.50;;;;;;4919053;29;20516;-69
2021/07/24 14:47:19;;;;;;;10.67;9.93;;;29.60;94.90;;;;;;4918530;29;20474;-71
2021/07/24 14:49:46;;;;;;;11.93;10.73;;;29.70;94.30;;;;;;4918110;29;20466;-71
2021/07/24 14:52:12;;;;;;;10.30;9.60;;;29.80;95.30;;;;;;4917734;29;20591;-70
2021/07/24 14:54:39;;;;;;;11.73;10.67;;;29.80;94.20;;;;;;4918287;29;20976;-71
2021/07/24 14:57:06;;;;;;;11.53;10.63;;;29.90;94.10;;;;;;4919564;29;20476;-70
2021/07/24 14:59:33;;;;;;;10.97;10.07;;;29.80;94.20;;;;;;4918601;29;20477;-72
2021/07/24 15:01:59;;;;;;;10.47;9.60;;;29.90;93.50;;;;;;4919519;29;20562;-70
2021/07/24 15:04:27;;;;;;;10.57;9.87;;;29.70;94.00;;;;;;4902023;29;20475;-70
2021/07/24 15:06:54;;;;;;;10.40;9.70;;;29.70;94.40;;;;;;4899114;29;20508;-70
2021/07/24 15:09:21;;;;;;;10.50;9.80;;;29.70;94.50;;;;;;4898990;29;20474;-70
2021/07/24 15:11:47;;;;;;;11.53;10.63;;;29.80;94.10;;;;;;4909986;29;20877;-70
2021/07/24 15:14:14;;;;;;;11.00;10.10;;;30.00;94.40;;;;;;4917701;29;20954;-69
2021/07/24 15:16:42;;;;;;;10.80;10.00;;;30.10;93.70;;;;;;4917589;29;20475;-70
2021/07/24 15:19:08;;;;;;;11.33;10.37;;;30.10;93.50;;;;;;4918004;29;20527;-70
2021/07/24 15:21:36;;;;;;;11.93;11.03;;;30.20;92.90;;;;;;4917398;29;20489;-70
2021/07/24 15:24:05;;;;;;;11.50;10.60;;;30.20;93.00;;;;;;4917808;29;20962;-70
2021/07/24 15:26:32;;;;;;;9.93;9.10;;;30.30;92.20;;;;;;4918231;29;21037;-70
2021/07/24 15:28:58;;;;;;;9.97;9.37;;;30.30;92.80;;;;;;4918636;29;20468;-70
2021/07/24 15:31:25;;;;;;;11.80;10.53;;;30.30;92.20;;;;;;4917337;29;20498;-69
2021/07/24 15:33:52;;;;;;;11.17;10.30;;;30.30;92.40;;;;;;4917864;29;20965;-69
2021/07/24 15:36:18;;;;;;;10.83;10.03;;;30.30;92.40;;;;;;4917452;29;20558;-69
2021/07/24 15:38:46;;;;;;;11.23;10.37;;;30.30;92.20;;;;;;4918425;29;20523;-70
2021/07/24 15:41:13;;;;;;;10.70;9.90;;;30.10;92.60;;;;;;4916893;29;20500;-70
2021/07/24 15:43:39;;;;;;;11.97;11.07;;;30.00;92.50;;;;;;4914932;29;20474;-70
2021/07/24 15:46:06;;;;;;;11.93;10.83;;;29.90;92.40;;;;;;4917134;29;20523;-70
2021/07/24 15:48:33;;;;;;;11.27;10.27;;;29.80;92.60;;;;;;4918125;29;20474;-69
2021/07/24 15:51:00;;;;;;;12.07;11.10;;;29.70;92.60;;;;;;4917060;29;20504;-69
2021/07/24 15:53:27;;;;;;;11.80;10.63;;;29.70;93.10;;;;;;4917709;29;20473;-69
2021/07/24 15:55:55;;;;;;;12.10;11.10;;;29.70;92.00;;;;;;4917395;29;20552;-69
2021/07/24 15:58:22;;;;;;;12.27;11.03;;;29.70;91.90;;;;;;4918005;29;20825;-69
2021/07/24 16:00:48;;;;;;;12.00;10.90;;;29.60;92.40;;;;;;4916698;29;20504;-69
2021/07/24 16:03:15;;;;;;;11.50;10.53;;;29.50;92.00;;;;;;4917255;29;20520;-69
2021/07/24 16:05:42;;;;;;;11.30;10.50;;;29.40;92.10;;;;;;4917127;29;20836;-69
2021/07/24 16:08:09;;;;;;;11.50;10.60;;;29.30;92.60;;;;;;4917820;29;20818;-69
2021/07/24 16:10:40;;;;;;;12.20;10.80;;;29.20;92.20;;;;;;4917232;29;20488;-70
2021/07/24 16:13:08;;;;;;;12.40;11.30;;;29.20;93.00;;;;;;4898480;29;20553;-69
2021/07/24 16:15:35;;;;;;;10.87;10.07;;;29.20;92.50;;;;;;4897795;29;20631;-69
2021/07/24 16:18:02;;;;;;;11.03;10.13;;;29.20;92.40;;;;;;4898330;29;20560;-69
2021/07/24 16:20:28;;;;;;;12.00;10.90;;;29.10;92.10;;;;;;4898010;29;20980;-69
2021/07/24 16:22:55;;;;;;;11.60;10.70;;;29.10;93.20;;;;;;4916140;29;20962;-69
2021/07/24 16:25:21;;;;;;;12.47;11.57;;;29.10;92.70;;;;;;4917127;29;20460;-69
2021/07/24 16:27:48;;;;;;;12.37;11.47;;;29.10;92.80;;;;;;4917515;29;20472;-69
2021/07/24 16:30:16;;;;;;;12.77;11.10;;;29.10;93.20;;;;;;4916941;29;20475;-69
2021/07/24 16:32:43;;;;;;;11.17;10.27;;;29.10;93.30;;;;;;4914739;29;20467;-69
2021/07/24 16:35:10;;;;;;;11.40;10.60;;;29.10;93.50;;;;;;4916362;29;20496;-69
2021/07/24 16:37:37;;;;;;;12.27;11.17;;;29.10;93.80;;;;;;4916256;29;20552;-69
2021/07/24 16:40:05;;;;;;;11.13;10.33;;;29.10;94.40;;;;;;4916819;29;20468;-69
2021/07/24 16:42:31;;;;;;;12.87;11.57;;;29.00;93.90;;;;;;4916920;29;20515;-69
2021/07/24 16:44:59;;;;;;;12.63;11.53;;;29.00;94.30;;;;;;4916971;29;20492;-69
2021/07/24 16:47:29;;;;;;;13.00;11.93;;;29.00;94.30;;;;;;4916412;29;20598;-69
2021/07/24 16:49:56;;;;;;;12.93;11.93;;;29.10;94.30;;;;;;4916251;29;20462;-68
2021/07/24 16:52:23;;;;;;;14.87;13.63;;;29.10;94.30;;;;;;4916254;29;21010;-69